KTNU/TNU METAR and TAF weather

Enter ICAO airport designator
Station Type Date Time Source
KTNU METAR 2020/07/06 01:55 UTC NOAA

KTNU 060155Z AUTO 00000KT 10SM CLR 27/23 A2996 RMK A01


Station Type Date Time Source
KTNU Decoded METAR 2020/07/06 01:55 UTC NOAA

Newton Municipal, IA, United States (KTNU) 41-41N 093-01W
Jul 05, 2020 - 09:55 PM EDT / 2020.07.06 0155 UTC
Wind: Calm:0
Visibility: 10 mile(s):0
Sky conditions: clear
Temperature: 80 F (27 C)
Dew Point: 73 F (23 C)
Relative Humidity: 78%
Pressure (altimeter): 29.96 in. Hg (1014 hPa)
ob: KTNU 060155Z AUTO 00000KT 10SM CLR 27/23 A2996 RMK A01
cycle: 2

Station Type Date Time Source
KTNU TAF UTC NOAA

Error!

Example: see airport list